createdAt,value
2022-08-26T00:00:19.912Z,99033.27
2022-08-26T00:03:03.522Z,99035.14
2022-08-26T00:05:31.927Z,99033.21
2022-08-26T00:08:00.420Z,99037.35
2022-08-26T00:10:29.068Z,99039.80
2022-08-26T00:12:57.289Z,99040.23
2022-08-26T00:15:26.135Z,99043.08
2022-08-26T00:17:56.450Z,99041.55
2022-08-26T00:20:29.623Z,99040.44
2022-08-26T00:22:59.147Z,99034.09
2022-08-26T00:25:28.015Z,99034.71
2022-08-26T00:27:56.658Z,99035.11
2022-08-26T00:30:28.305Z,99036.38
2022-08-26T00:32:57.273Z,99036.27
2022-08-26T00:35:26.591Z,99039.91
2022-08-26T00:37:56.802Z,99037.59
2022-08-26T00:40:34.725Z,99031.80
2022-08-26T00:43:09.502Z,99034.91
2022-08-26T00:45:42.915Z,99033.73
2022-08-26T00:48:12.260Z,99034.84
2022-08-26T00:50:49.416Z,99036.24
2022-08-26T00:53:26.025Z,99034.09
2022-08-26T00:56:08.290Z,99032.14
2022-08-26T00:58:39.068Z,99031.13
2022-08-26T01:05:58.323Z,99029.71
2022-08-26T01:08:27.902Z,99030.75
2022-08-26T01:10:58.492Z,99033.09
2022-08-26T01:13:29.711Z,99033.05
2022-08-26T01:16:02.848Z,99035.48
2022-08-26T01:18:31.732Z,99033.48
2022-08-26T01:21:11.470Z,99036.09
2022-08-26T01:23:45.083Z,99037.07
2022-08-26T01:26:19.973Z,99038.09
2022-08-26T01:28:51.831Z,99037.61
2022-08-26T01:31:25.053Z,99035.17
2022-08-26T01:34:00.547Z,99036.01
2022-08-26T01:36:29.465Z,99033.90
2022-08-26T01:38:57.885Z,99037.42
2022-08-26T01:41:27.304Z,99041.66
2022-08-26T01:43:57.766Z,99041.06
2022-08-26T01:46:29.815Z,99040.69
2022-08-26T01:49:02.550Z,99043.55
2022-08-26T01:51:34.280Z,99041.50
2022-08-26T01:54:12.007Z,99043.27
2022-08-26T01:56:42.364Z,99046.55
2022-08-26T01:59:13.341Z,99045.51
2022-08-26T02:01:41.979Z,99043.29
2022-08-26T02:04:23.822Z,99040.20
2022-08-26T02:06:53.630Z,99032.87
2022-08-26T02:09:23.674Z,99034.13
2022-08-26T02:11:53.645Z,99032.77
2022-08-26T02:14:27.071Z,99032.83
2022-08-26T02:16:56.823Z,99029.41
2022-08-26T02:19:32.734Z,99028.21
2022-08-26T02:22:06.401Z,99026.20
2022-08-26T02:24:52.875Z,99026.27
2022-08-26T02:27:32.461Z,99031.15
2022-08-26T02:30:14.881Z,99027.89
2022-08-26T02:32:46.491Z,99026.11
2022-08-26T02:35:20.569Z,99028.55
2022-08-26T02:37:50.420Z,99030.33
2022-08-26T02:40:22.665Z,99028.16
2022-08-26T02:42:52.994Z,99025.92
2022-08-26T02:45:26.411Z,99021.77
2022-08-26T02:47:58.380Z,99021.70
2022-08-26T02:50:28.887Z,99026.70
2022-08-26T02:52:56.997Z,99023.34
2022-08-26T02:55:26.043Z,99022.52
2022-08-26T02:57:54.310Z,99021.92
2022-08-26T03:00:23.820Z,99020.67
2022-08-26T03:02:52.201Z,99018.77
2022-08-26T03:05:22.217Z,99015.84
2022-08-26T03:07:52.929Z,99017.98
2022-08-26T03:10:22.606Z,99014.14
2022-08-26T03:12:50.919Z,99013.86
2022-08-26T03:15:20.607Z,99014.23
2022-08-26T03:17:50.415Z,99015.33
2022-08-26T03:20:18.757Z,99015.41
2022-08-26T03:22:47.255Z,99019.57
2022-08-26T03:25:18.255Z,99015.72
2022-08-26T03:27:46.760Z,99016.09
2022-08-26T03:30:34.867Z,99014.04
2022-08-26T03:33:04.142Z,99013.84
2022-08-26T03:35:33.620Z,99013.79
2022-08-26T03:38:03.592Z,99014.49
2022-08-26T03:40:33.909Z,99010.17
2022-08-26T03:43:04.729Z,99008.81
2022-08-26T03:45:33.600Z,99006.31
2022-08-26T03:48:01.915Z,99004.04
2022-08-26T03:50:34.107Z,99004.68
2022-08-26T03:53:03.439Z,99009.89
2022-08-26T03:55:33.603Z,99008.70
2022-08-26T03:58:02.186Z,99007.36
2022-08-26T04:00:31.228Z,99007.14
2022-08-26T04:02:59.467Z,99004.34
2022-08-26T04:05:27.818Z,99005.31
2022-08-26T04:07:56.578Z,99005.48
2022-08-26T04:10:26.408Z,99008.73
2022-08-26T04:13:00.337Z,99005.16
2022-08-26T04:15:28.873Z,99002.30
2022-08-26T04:17:57.314Z,99002.89
2022-08-26T04:20:26.872Z,99003.87
2022-08-26T04:22:55.277Z,99006.92
2022-08-26T04:25:24.183Z,99008.50
2022-08-26T04:27:52.705Z,99009.94
2022-08-26T04:30:21.429Z,99009.29
2022-08-26T04:32:50.217Z,99009.40
2022-08-26T04:35:22.794Z,99007.84
2022-08-26T04:37:54.538Z,99002.89
2022-08-26T04:40:24.260Z,99003.54
2022-08-26T04:42:54.773Z,99007.52
2022-08-26T04:45:24.238Z,99005.02
2022-08-26T04:47:55.070Z,99002.70
2022-08-26T04:50:25.705Z,99002.70
2022-08-26T04:52:55.801Z,99005.18
2022-08-26T04:55:38.554Z,99003.76
2022-08-26T04:58:11.293Z,99001.64
2022-08-26T05:00:39.485Z,99003.02
2022-08-26T05:03:10.201Z,99001.48
2022-08-26T05:05:42.709Z,99005.09
2022-08-26T05:08:13.278Z,99000.31
2022-08-26T05:10:47.744Z,98997.95
2022-08-26T05:13:19.088Z,99000.44
2022-08-26T05:15:49.471Z,99001.11
2022-08-26T05:18:21.396Z,98999.05
2022-08-26T05:20:54.828Z,99003.90
2022-08-26T05:23:24.996Z,99005.34
2022-08-26T05:25:59.169Z,99007.33
2022-08-26T05:28:30.001Z,99009.11
2022-08-26T05:30:58.482Z,99013.64
2022-08-26T05:33:26.714Z,99012.00
2022-08-26T05:35:55.014Z,99016.01
2022-08-26T05:38:23.721Z,99020.98
2022-08-26T05:40:53.278Z,99019.73
2022-08-26T05:43:21.496Z,99021.98
2022-08-26T05:45:50.912Z,99021.69
2022-08-26T05:48:22.667Z,99027.52
2022-08-26T05:50:53.662Z,99025.60
2022-08-26T05:53:23.874Z,99024.90
2022-08-26T05:55:56.177Z,99024.63
2022-08-26T05:58:24.468Z,99026.41
2022-08-26T06:00:58.151Z,99029.03
2022-08-26T06:03:26.435Z,99029.02
2022-08-26T06:05:55.751Z,99025.52
2022-08-26T06:08:24.192Z,99022.12
2022-08-26T06:10:55.371Z,99015.20
2022-08-26T06:13:27.289Z,99014.06
2022-08-26T06:16:03.254Z,99012.80
2022-08-26T06:18:36.606Z,99010.98
2022-08-26T06:21:17.545Z,99011.74
2022-08-26T06:24:06.198Z,99012.60
2022-08-26T06:26:36.681Z,99012.52
2022-08-26T06:29:06.763Z,99015.16
2022-08-26T06:31:37.202Z,99011.92
2022-08-26T06:34:10.683Z,99014.91
2022-08-26T06:36:42.255Z,99015.35
2022-08-26T06:39:14.477Z,99018.23
2022-08-26T06:41:45.084Z,99024.06
2022-08-26T06:44:18.945Z,99029.11
2022-08-26T06:46:50.302Z,99026.02
2022-08-26T06:49:25.815Z,99025.52
2022-08-26T06:51:59.879Z,99024.52
2022-08-26T06:54:30.288Z,99027.08
2022-08-26T06:56:59.126Z,99023.90
2022-08-26T06:59:27.426Z,99021.81
2022-08-26T07:01:56.118Z,99023.20
2022-08-26T07:04:25.086Z,99023.05
2022-08-26T07:06:56.955Z,99021.42
2022-08-26T07:09:29.296Z,99026.30
2022-08-26T07:11:58.344Z,99024.82
2022-08-26T07:14:26.671Z,99024.88
2022-08-26T07:16:54.923Z,99028.89
2022-08-26T07:19:30.033Z,99027.48
2022-08-26T07:22:03.812Z,99025.00
2022-08-26T07:24:35.475Z,99022.93
2022-08-26T07:27:06.020Z,99021.70
2022-08-26T07:29:35.663Z,99021.83
2022-08-26T07:32:04.665Z,99017.94
2022-08-26T07:34:33.380Z,99014.91
2022-08-26T07:37:02.739Z,99016.54
2022-08-26T07:39:32.050Z,99016.23
2022-08-26T07:42:03.810Z,99010.04
2022-08-26T07:44:38.246Z,99010.44
2022-08-26T07:47:10.069Z,99010.94
2022-08-26T07:49:54.994Z,99012.38
2022-08-26T07:52:26.897Z,99009.98
2022-08-26T07:55:00.716Z,99010.77
2022-08-26T07:57:30.478Z,99012.10
2022-08-26T07:59:59.277Z,99010.50
2022-08-26T08:02:29.707Z,99013.60
2022-08-26T08:04:58.483Z,99013.08
2022-08-26T08:07:44.249Z,99012.52
2022-08-26T08:10:17.548Z,99016.59
2022-08-26T08:12:47.622Z,99014.02
2022-08-26T08:15:18.447Z,99014.19
2022-08-26T08:17:50.421Z,99010.15
2022-08-26T08:20:21.421Z,99014.54
2022-08-26T08:22:52.737Z,99015.07
2022-08-26T08:25:23.328Z,99015.23
2022-08-26T08:27:51.588Z,99014.09
2022-08-26T08:30:22.785Z,99015.95
2022-08-26T08:32:52.296Z,99017.63
2022-08-26T08:35:22.614Z,99015.38
2022-08-26T08:37:54.593Z,99015.29
2022-08-26T08:40:26.376Z,99010.40
2022-08-26T08:43:10.012Z,99006.94
2022-08-26T08:45:47.480Z,99005.17
2022-08-26T08:48:28.135Z,99003.04
2022-08-26T08:51:06.418Z,99006.17
2022-08-26T08:53:39.434Z,99008.24
2022-08-26T08:56:42.860Z,99004.79
2022-08-26T08:59:17.089Z,99005.68
2022-08-26T09:01:52.347Z,99005.21
2022-08-26T09:04:51.974Z,99005.67
2022-08-26T09:07:37.369Z,99004.45
2022-08-26T09:10:06.273Z,99010.30
2022-08-26T09:12:35.174Z,99011.98
2022-08-26T09:15:25.477Z,99011.88
2022-08-26T09:18:29.279Z,99008.91
2022-08-26T09:21:04.495Z,99005.10
2022-08-26T09:23:35.975Z,99002.91
2022-08-26T09:26:18.737Z,99001.66
2022-08-26T09:28:55.255Z,99003.75
2022-08-26T09:31:36.384Z,99001.45
2022-08-26T09:34:25.951Z,98997.73
2022-08-26T09:36:59.712Z,98995.03
2022-08-26T09:39:38.165Z,98992.58
2022-08-26T09:42:17.263Z,98994.97
2022-08-26T09:45:03.686Z,98990.63
2022-08-26T09:48:00.761Z,98988.27
2022-08-26T09:50:34.071Z,98985.38
2022-08-26T09:53:09.705Z,98987.85
2022-08-26T09:55:43.892Z,98980.84
2022-08-26T09:58:38.073Z,98980.50
2022-08-26T10:01:09.009Z,98969.48
2022-08-26T10:03:39.816Z,98969.55
2022-08-26T10:06:23.756Z,98967.42
2022-08-26T10:08:57.664Z,98966.67
2022-08-26T10:11:35.523Z,98958.39
2022-08-26T10:14:17.516Z,98955.23
2022-08-26T10:17:11.456Z,98955.98
2022-08-26T10:19:57.139Z,98956.91
2022-08-26T10:22:45.699Z,98953.45
2022-08-26T10:25:20.115Z,98954.61
2022-08-26T10:28:03.793Z,98951.33
2022-08-26T10:30:45.658Z,98946.17
2022-08-26T10:33:18.574Z,98940.72
2022-08-26T10:35:59.784Z,98945.58
2022-08-26T10:38:34.953Z,98945.19
2022-08-26T10:41:18.758Z,98940.13
2022-08-26T10:43:59.632Z,98937.69
2022-08-26T10:46:36.960Z,98935.09
2022-08-26T10:49:17.430Z,98932.95
2022-08-26T10:52:12.300Z,98933.15
2022-08-26T10:55:08.572Z,98931.77
2022-08-26T10:58:04.753Z,98929.87
2022-08-26T11:00:59.217Z,98924.29
2022-08-26T11:03:54.317Z,98924.64
2022-08-26T11:06:29.050Z,98922.20
2022-08-26T11:08:59.692Z,98921.00
2022-08-26T11:11:39.805Z,98919.98
2022-08-26T11:14:23.456Z,98909.98
2022-08-26T11:16:59.010Z,98909.60
2022-08-26T11:19:59.568Z,98906.69
2022-08-26T11:22:32.695Z,98904.34
2022-08-26T11:25:05.542Z,98902.85
2022-08-26T11:27:36.477Z,98902.13
2022-08-26T11:30:07.973Z,98896.96
2022-08-26T11:32:39.308Z,98893.84
2022-08-26T11:35:20.215Z,98888.52
2022-08-26T11:37:48.812Z,98884.50
2022-08-26T11:40:43.670Z,98882.16
2022-08-26T11:43:18.673Z,98881.73
2022-08-26T11:46:00.374Z,98881.07
2022-08-26T11:48:33.338Z,98881.04
2022-08-26T11:51:07.290Z,98878.02
2022-08-26T11:53:40.940Z,98879.33
2022-08-26T11:56:12.520Z,98876.46
2022-08-26T11:58:45.553Z,98871.66
2022-08-26T12:01:25.827Z,98878.73
2022-08-26T12:03:54.468Z,98873.46
2022-08-26T12:06:38.913Z,98872.13
2022-08-26T12:09:34.618Z,98865.01
2022-08-26T12:12:22.087Z,98868.27
2022-08-26T12:15:10.180Z,98867.85
2022-08-26T12:17:40.735Z,98868.09
2022-08-26T12:20:46.058Z,98864.39
2022-08-26T12:23:30.627Z,98859.89
2022-08-26T12:26:29.706Z,98857.10
2022-08-26T12:29:09.968Z,98852.24
2022-08-26T12:31:48.893Z,98854.52
2022-08-26T13:52:04.434Z,98780.92
2022-08-26T13:54:33.537Z,98780.30
2022-08-26T13:57:01.988Z,98780.07
2022-08-26T13:59:30.299Z,98777.55
2022-08-26T14:01:58.948Z,98777.23
2022-08-26T14:04:27.603Z,98775.45
2022-08-26T14:06:56.492Z,98774.30
2022-08-26T14:09:24.950Z,98774.25
2022-08-26T14:11:54.862Z,98768.20
2022-08-26T14:14:23.922Z,98764.74
2022-08-26T14:16:59.527Z,98764.09
2022-08-26T14:19:30.759Z,98763.68
2022-08-26T14:22:01.127Z,98760.76
2022-08-26T14:24:29.971Z,98762.59
2022-08-26T14:26:58.865Z,98759.02
2022-08-26T14:29:27.171Z,98761.89
2022-08-26T14:31:57.202Z,98757.33
2022-08-26T14:34:26.932Z,98752.96
2022-08-26T14:36:55.126Z,98751.86
2022-08-26T14:39:24.162Z,98750.52
2022-08-26T14:41:56.273Z,98745.23
2022-08-26T14:44:29.945Z,98745.63
2022-08-26T14:47:01.419Z,98741.42
2022-08-26T14:49:31.665Z,98741.26
2022-08-26T14:51:59.932Z,98735.46
2022-08-26T14:54:29.563Z,98732.89
2022-08-26T14:57:04.256Z,98731.02
2022-08-26T14:59:38.229Z,98732.70
2022-08-26T15:02:09.182Z,98728.14
2022-08-26T15:04:42.055Z,98723.96
2022-08-26T15:07:12.884Z,98725.09
2022-08-26T15:09:41.176Z,98723.83
2022-08-26T15:12:09.446Z,98723.16
2022-08-26T15:14:37.821Z,98723.22
2022-08-26T15:17:06.549Z,98719.10
2022-08-26T15:19:34.806Z,98718.67
2022-08-26T15:22:03.262Z,98719.88
2022-08-26T15:24:31.763Z,98720.73
2022-08-26T15:27:00.131Z,98724.55
2022-08-26T15:29:28.454Z,98720.73
2022-08-26T15:31:57.384Z,98720.27
2022-08-26T15:34:27.175Z,98717.58
2022-08-26T15:36:55.449Z,98713.52
2022-08-26T15:39:23.824Z,98714.42
2022-08-26T15:41:52.022Z,98713.88
2022-08-26T15:44:20.757Z,98712.04
2022-08-26T15:46:50.220Z,98712.50
2022-08-26T15:49:18.830Z,98711.86
2022-08-26T15:51:50.518Z,98710.20
2022-08-26T15:54:22.308Z,98714.32
2022-08-26T15:56:52.375Z,98714.16
2022-08-26T15:59:21.897Z,98715.98
2022-08-26T16:01:52.223Z,98717.44
2022-08-26T16:04:21.095Z,98715.42
2022-08-26T16:06:51.725Z,98715.60
2022-08-26T16:09:24.260Z,98711.08
2022-08-26T16:11:57.249Z,98708.84
2022-08-26T16:14:30.393Z,98710.61
2022-08-26T16:16:58.724Z,98707.14
2022-08-26T16:19:27.128Z,98705.65
2022-08-26T16:21:57.338Z,98706.34
2022-08-26T16:24:30.387Z,98703.59
2022-08-26T16:26:59.256Z,98701.94
2022-08-26T16:29:27.928Z,98702.77
2022-08-26T16:31:56.622Z,98703.61
2022-08-26T16:34:25.015Z,98699.96
2022-08-26T16:36:53.350Z,98693.31
2022-08-26T16:39:21.669Z,98694.38
2022-08-26T16:41:50.571Z,98696.87
2022-08-26T16:44:19.236Z,98694.61
2022-08-26T16:46:48.148Z,98695.27
2022-08-26T16:49:16.637Z,98690.38
2022-08-26T16:51:45.076Z,98693.17
2022-08-26T16:54:13.336Z,98696.30
2022-08-26T16:56:41.770Z,98697.13
2022-08-26T16:59:11.758Z,98701.84
2022-08-26T17:01:40.354Z,98699.89
2022-08-26T17:04:08.906Z,98706.30
2022-08-26T17:06:37.370Z,98703.56
2022-08-26T17:09:05.977Z,98706.19
2022-08-26T17:11:35.521Z,98701.20
2022-08-26T17:14:05.247Z,98700.62
2022-08-26T17:16:33.779Z,98697.96
2022-08-26T17:19:03.015Z,98699.39
2022-08-26T17:21:33.688Z,98699.98
2022-08-26T17:24:04.552Z,98703.23
2022-08-26T17:26:33.254Z,98704.69
2022-08-26T17:29:01.655Z,98704.30
2022-08-26T17:31:30.074Z,98707.40
2022-08-26T17:33:58.434Z,98708.32
2022-08-26T17:36:27.939Z,98701.58
2022-08-26T17:38:58.714Z,98702.55
2022-08-26T17:41:27.478Z,98704.57
2022-08-26T17:43:56.161Z,98703.11
2022-08-26T17:46:24.761Z,98708.48
2022-08-26T17:48:53.335Z,98707.20
2022-08-26T17:51:23.005Z,98706.04
2022-08-26T17:53:52.131Z,98706.61
2022-08-26T17:56:25.034Z,98708.87
2022-08-26T17:59:02.391Z,98711.60
2022-08-26T18:01:32.581Z,98709.80
2022-08-26T18:04:01.774Z,98708.11
2022-08-26T18:06:30.747Z,98702.73
2022-08-26T18:09:00.667Z,98705.94
2022-08-26T18:11:29.734Z,98702.61
2022-08-26T18:13:58.772Z,98706.02
2022-08-26T18:16:27.651Z,98704.72
2022-08-26T18:18:56.034Z,98701.51
2022-08-26T18:21:27.823Z,98702.96
2022-08-26T18:23:56.547Z,98696.98
2022-08-26T18:26:31.286Z,98696.56
2022-08-26T18:28:59.813Z,98695.38
2022-08-26T18:31:28.365Z,98693.00
2022-08-26T18:33:59.684Z,98695.19
2022-08-26T18:36:35.041Z,98694.66
2022-08-26T18:39:05.510Z,98697.86
2022-08-26T18:41:40.867Z,98692.06
2022-08-26T18:44:13.473Z,98689.98
2022-08-26T18:46:43.694Z,98690.19
2022-08-26T18:49:13.791Z,98689.60
2022-08-26T18:51:42.735Z,98694.38
2022-08-26T18:54:11.809Z,98692.25
2022-08-26T18:56:40.725Z,98693.73
2022-08-26T18:59:09.785Z,98692.63
2022-08-26T19:01:40.523Z,98693.90
2022-08-26T19:04:14.049Z,98698.70
2022-08-26T19:06:50.747Z,98696.02
2022-08-26T19:09:20.321Z,98696.59
2022-08-26T19:11:50.066Z,98696.70
2022-08-26T19:14:19.062Z,98696.16
2022-08-26T19:16:49.666Z,98695.70
2022-08-26T19:19:19.408Z,98694.36
2022-08-26T19:21:47.776Z,98698.27
2022-08-26T19:24:17.728Z,98696.93
2022-08-26T19:26:49.171Z,98694.03
2022-08-26T19:29:22.158Z,98698.66
2022-08-26T19:31:50.627Z,98704.98
2022-08-26T19:34:20.759Z,98708.40
2022-08-26T19:36:49.663Z,98714.09
2022-08-26T19:39:17.791Z,98716.83
2022-08-26T19:41:46.070Z,98712.98
2022-08-26T19:44:38.113Z,98715.66
2022-08-26T19:47:08.159Z,98712.77
2022-08-26T19:49:37.063Z,98717.28
2022-08-26T19:52:08.029Z,98720.90
2022-08-26T19:54:36.355Z,98715.86
2022-08-26T19:57:06.269Z,98718.77
2022-08-26T19:59:36.281Z,98718.98
2022-08-26T20:02:10.051Z,98721.98
2022-08-26T20:04:39.811Z,98721.06
2022-08-26T20:07:09.193Z,98725.05
2022-08-26T20:09:38.452Z,98726.67
2022-08-26T20:12:07.916Z,98731.98
2022-08-26T20:14:38.793Z,98734.77
2022-08-26T20:17:07.111Z,98742.58
2022-08-26T20:19:54.106Z,98745.14
2022-08-26T20:22:22.927Z,98744.44
2022-08-26T20:24:52.259Z,98743.74
2022-08-26T20:27:34.360Z,98745.67
2022-08-26T20:30:08.728Z,98748.25
2022-08-26T20:32:38.604Z,98748.69
2022-08-26T20:35:09.669Z,98750.02
2022-08-26T20:37:39.604Z,98748.96
2022-08-26T20:40:10.767Z,98748.35
2022-08-26T20:42:39.261Z,98751.83
2022-08-26T20:45:08.729Z,98753.23
2022-08-26T20:47:37.224Z,98751.92
2022-08-26T20:50:06.605Z,98755.80
2022-08-26T20:52:35.033Z,98757.59
2022-08-26T20:55:03.840Z,98761.46
2022-08-26T20:57:33.040Z,98758.46
2022-08-26T21:00:01.361Z,98763.81
2022-08-26T21:02:29.827Z,98763.42
2022-08-26T21:04:58.253Z,98761.77
2022-08-26T21:07:29.855Z,98760.54
2022-08-26T21:09:58.222Z,98760.64
2022-08-26T21:12:27.789Z,98763.77
2022-08-26T21:14:56.034Z,98763.81
2022-08-26T21:17:24.356Z,98765.31
2022-08-26T21:19:53.254Z,98763.32
2022-08-26T21:22:22.308Z,98766.73
2022-08-26T21:24:50.710Z,98762.04
2022-08-26T21:27:26.177Z,98761.23
2022-08-26T21:29:56.247Z,98757.52
2022-08-26T21:32:24.577Z,98757.27
2022-08-26T21:34:57.349Z,98761.80
2022-08-26T21:37:27.312Z,98758.95
2022-08-26T21:39:57.598Z,98757.38
2022-08-26T21:42:27.014Z,98753.45
2022-08-26T21:44:55.416Z,98747.02
2022-08-26T21:47:24.571Z,98748.21
2022-08-26T21:49:53.696Z,98747.04
2022-08-26T21:52:22.762Z,98741.10
2022-08-26T21:54:51.029Z,98740.55
2022-08-26T21:57:19.537Z,98739.98
2022-08-26T21:59:48.022Z,98735.40
2022-08-26T22:02:16.724Z,98733.09
2022-08-26T22:04:48.814Z,98730.74
2022-08-26T22:07:19.261Z,98734.28
2022-08-26T22:09:47.897Z,98732.38
2022-08-26T22:12:18.446Z,98731.80
2022-08-26T22:14:47.177Z,98732.11
2022-08-26T22:17:16.114Z,98734.83
2022-08-26T22:19:46.488Z,98732.94
2022-08-26T22:22:15.171Z,98729.00
2022-08-26T22:24:43.964Z,98725.80
2022-08-26T22:27:12.837Z,98726.31
2022-08-26T22:29:41.400Z,98726.00
2022-08-26T22:32:09.879Z,98725.63
2022-08-26T22:34:38.126Z,98723.07
2022-08-26T22:37:06.654Z,98726.92
2022-08-26T22:39:35.055Z,98727.77
2022-08-26T22:42:04.745Z,98726.02
2022-08-26T22:44:33.349Z,98725.79
2022-08-26T22:47:01.874Z,98725.09
2022-08-26T22:49:30.084Z,98718.34
2022-08-26T22:51:58.484Z,98719.63
2022-08-26T22:54:27.662Z,98717.36
2022-08-26T22:56:56.107Z,98712.71
2022-08-26T22:59:25.104Z,98708.70
2022-08-26T23:01:57.068Z,98709.70
2022-08-26T23:04:27.979Z,98708.41
2022-08-26T23:06:56.053Z,98706.02
2022-08-26T23:09:24.547Z,98706.40
2022-08-26T23:11:56.053Z,98705.25
2022-08-26T23:14:25.978Z,98703.71
2022-08-26T23:16:54.406Z,98704.80
2022-08-26T23:19:23.084Z,98704.21
2022-08-26T23:21:52.004Z,98699.08
2022-08-26T23:24:21.225Z,98696.67
2022-08-26T23:26:49.466Z,98696.58
2022-08-26T23:29:18.087Z,98696.23
2022-08-26T23:31:46.750Z,98693.40
2022-08-26T23:34:33.808Z,98692.02
2022-08-26T23:37:03.254Z,98687.09
2022-08-26T23:39:36.793Z,98679.19
2022-08-26T23:42:06.813Z,98674.94
2022-08-26T23:44:35.120Z,98672.04
2022-08-26T23:47:05.209Z,98672.80
2022-08-26T23:49:34.718Z,98669.81
2022-08-26T23:52:23.467Z,98671.93
2022-08-26T23:54:53.005Z,98664.90
2022-08-26T23:57:23.798Z,98667.19
2022-08-26T23:59:53.391Z,98668.77
